Terminal Aerodrome Forecast
Issued by NWS

Current Version | Previous Version | Text Only | Print | Product List | Glossary On
Versions: 1 2 3 4 5 6 7 8 9 10 11 12 13 14 15 16 17 18 19 20 21 22 23
356
FTUS41 KBGM 220520
TAFITH
TAF
KITH 220520Z 2206/2306 00000KT 2SM BR BKN250
      TEMPO 2206/2210 1/2SM FG VV001
     FM221000 00000KT 1/2SM FG VV001
     FM221200 VRB02KT 2SM BR BKN250
     FM221400 33005KT P6SM SCT250=

USA.gov is the U.S. government's official web portal to all federal, state and local government web resources and services.